Time;durP1;ratioP1;P1;durP2;ratioP2;P2;SDS_P1;SDS_P2;PMS_P1;PMS_P2;Temp;Humidity;BMP_temperature;BMP_pressure;BME280_temperature;BME280_humidity;BME280_pressure;Samples;Min_cycle;Max_cycle;Signal;HPM_P1;HPM_P2
2022/11/14 00:01:13;;;;;;;7.72;4.88;;;9.20;99.90;;;;;;4201849;28;20440;-63
2022/11/14 00:03:13;;;;;;;8.60;5.18;;;9.20;99.90;;;;;;4199722;28;20068;-63
2022/11/14 00:05:14;;;;;;;8.85;5.25;;;9.10;99.90;;;;;;4201872;28;20514;-62
2022/11/14 00:07:15;;;;;;;7.68;4.82;;;9.10;99.90;;;;;;4201906;28;20111;-64
2022/11/14 00:09:15;;;;;;;7.18;4.72;;;9.10;99.90;;;;;;4197227;28;20047;-64
2022/11/14 00:11:16;;;;;;;7.97;4.57;;;9.10;99.90;;;;;;4205414;28;20044;-63
2022/11/14 00:13:18;;;;;;;9.50;4.53;;;9.10;99.90;;;;;;4210678;28;20047;-64
2022/11/14 00:15:19;;;;;;;8.15;4.90;;;9.00;99.90;;;;;;4202678;28;20138;-63
2022/11/14 00:17:19;;;;;;;8.70;5.22;;;9.00;99.90;;;;;;4200715;28;20103;-63
2022/11/14 00:19:20;;;;;;;8.07;5.20;;;9.00;99.90;;;;;;4200590;28;20485;-63
2022/11/14 00:21:20;;;;;;;9.63;5.40;;;9.00;99.90;;;;;;4201849;28;20059;-63
2022/11/14 00:23:21;;;;;;;9.45;5.30;;;8.90;99.90;;;;;;4209843;28;20032;-63
2022/11/14 00:25:22;;;;;;;10.02;5.22;;;8.90;99.90;;;;;;4201947;28;20032;-63
2022/11/14 00:27:22;;;;;;;7.63;5.53;;;8.80;99.90;;;;;;4206824;28;20033;-63
2022/11/14 00:29:23;;;;;;;10.77;5.47;;;8.70;99.90;;;;;;4205643;28;20028;-63
2022/11/14 00:31:24;;;;;;;10.05;5.90;;;8.70;99.90;;;;;;4207061;28;20032;-63
2022/11/14 00:33:24;;;;;;;8.20;4.93;;;8.70;99.90;;;;;;4209762;28;20038;-63
2022/11/14 00:35:25;;;;;;;9.38;5.22;;;8.60;99.90;;;;;;4206827;28;20494;-62
2022/11/14 00:37:26;;;;;;;9.57;5.55;;;8.60;99.90;;;;;;4206951;28;20101;-63
2022/11/14 00:39:26;;;;;;;9.57;5.20;;;8.60;99.90;;;;;;4202225;28;20048;-62
2022/11/14 00:41:27;;;;;;;8.13;5.20;;;8.50;99.90;;;;;;4203807;28;20113;-63
2022/11/14 00:43:27;;;;;;;9.52;5.22;;;8.50;99.90;;;;;;4203724;28;20392;-63
2022/11/14 00:45:28;;;;;;;8.90;5.00;;;8.40;99.90;;;;;;4205005;28;20391;-63
2022/11/14 00:47:29;;;;;;;10.82;5.75;;;8.30;99.90;;;;;;4204954;28;20036;-63
2022/11/14 00:49:29;;;;;;;7.43;4.88;;;8.40;99.90;;;;;;4204123;28;20120;-63
2022/11/14 00:51:30;;;;;;;7.72;4.68;;;8.30;99.90;;;;;;4206376;28;20499;-63
2022/11/14 00:53:31;;;;;;;8.27;4.28;;;8.30;99.90;;;;;;4206889;28;20033;-63
2022/11/14 00:55:32;;;;;;;8.30;5.18;;;8.20;99.90;;;;;;4206783;28;20043;-63
2022/11/14 00:57:32;;;;;;;7.68;4.72;;;8.30;99.90;;;;;;4203669;28;20120;-63
2022/11/14 00:59:33;;;;;;;8.57;4.65;;;8.30;99.90;;;;;;4200608;28;20029;-63
2022/11/14 01:01:34;;;;;;;7.38;4.53;;;8.30;99.90;;;;;;4200058;28;20025;-63
2022/11/14 01:03:34;;;;;;;6.35;4.13;;;8.20;99.90;;;;;;4203302;28;20051;-63
2022/11/14 01:05:41;;;;;;;7.28;4.70;;;8.20;99.90;;;;;;4198325;28;20094;-63
2022/11/14 01:07:41;;;;;;;7.88;4.63;;;8.20;99.90;;;;;;4207318;28;20035;-63
2022/11/14 01:09:42;;;;;;;6.55;4.47;;;8.20;99.90;;;;;;4205982;28;20044;-63
2022/11/14 01:11:42;;;;;;;7.18;4.45;;;8.30;99.90;;;;;;4204323;28;20039;-63
2022/11/14 01:13:43;;;;;;;6.18;4.00;;;8.30;99.90;;;;;;4203494;28;20028;-63
2022/11/14 01:15:47;;;;;;;6.50;4.45;;;8.30;99.90;;;;;;4202924;28;20032;-63
2022/11/14 01:17:47;;;;;;;7.47;4.60;;;8.30;99.90;;;;;;4204910;28;20483;-63
2022/11/14 01:19:48;;;;;;;8.50;4.55;;;8.30;99.90;;;;;;4207164;28;20033;-63
2022/11/14 01:21:49;;;;;;;6.45;4.45;;;8.40;99.90;;;;;;4204953;28;20044;-63
2022/11/14 01:23:49;;;;;;;9.93;4.85;;;8.40;99.90;;;;;;4198799;28;20415;-64
2022/11/14 01:25:50;;;;;;;6.45;4.50;;;8.30;99.90;;;;;;4198271;28;20047;-64
2022/11/14 01:27:50;;;;;;;8.68;4.47;;;8.40;99.90;;;;;;4201548;28;20039;-61
2022/11/14 01:29:51;;;;;;;7.03;4.30;;;8.40;99.90;;;;;;4201936;28;20064;-63
2022/11/14 01:31:51;;;;;;;8.70;4.65;;;8.40;99.90;;;;;;4200293;28;20484;-63
2022/11/14 01:33:53;;;;;;;6.75;4.95;;;8.40;99.90;;;;;;4208925;28;20051;-63
2022/11/14 01:35:58;;;;;;;7.47;4.78;;;8.40;99.90;;;;;;4209236;28;20067;-63
2022/11/14 01:37:58;;;;;;;9.43;4.97;;;8.40;99.90;;;;;;4202378;28;20028;-62
2022/11/14 01:39:59;;;;;;;6.85;4.53;;;8.40;99.90;;;;;;4206980;28;20174;-63
2022/11/14 01:41:59;;;;;;;9.88;4.80;;;8.30;99.90;;;;;;4203180;28;20040;-64
2022/11/14 01:44:00;;;;;;;7.38;4.80;;;8.30;99.90;;;;;;4208481;28;20124;-63
2022/11/14 01:46:27;;;;;;;8.50;4.32;;;8.40;99.90;;;;;;4205514;28;20032;-63
2022/11/14 01:48:43;;;;;;;10.00;4.35;;;8.40;99.90;;;;;;4201983;28;20024;-63
2022/11/14 01:50:43;;;;;;;6.75;4.35;;;8.30;99.90;;;;;;4219940;27;20461;-64
2022/11/14 01:52:45;;;;;;;6.68;4.15;;;8.30;99.90;;;;;;4215458;28;20028;-61
2022/11/14 01:54:49;;;;;;;8.40;4.50;;;8.30;99.90;;;;;;4215279;28;20036;-64
2022/11/14 01:56:55;;;;;;;7.05;4.07;;;8.30;99.90;;;;;;4205242;28;20035;-64
2022/11/14 01:59:00;;;;;;;6.72;3.92;;;8.30;99.90;;;;;;4211991;28;20566;-63
2022/11/14 02:01:02;;;;;;;6.18;4.32;;;8.20;99.90;;;;;;4211386;28;20077;-64
2022/11/14 02:03:03;;;;;;;6.75;4.57;;;8.20;99.90;;;;;;4219414;28;20398;-64
2022/11/14 02:05:08;;;;;;;7.55;4.20;;;8.20;99.90;;;;;;4218776;28;20032;-67
2022/11/14 02:07:10;;;;;;;7.18;4.28;;;8.20;99.90;;;;;;4218831;28;20039;-63
2022/11/14 02:09:11;;;;;;;7.45;4.70;;;8.10;99.90;;;;;;4216304;28;20551;-64
2022/11/14 02:11:12;;;;;;;7.18;4.43;;;8.10;99.90;;;;;;4215454;28;20509;-64
2022/11/14 02:13:13;;;;;;;7.85;4.15;;;8.10;99.90;;;;;;4210565;28;20028;-64
2022/11/14 02:15:14;;;;;;;6.88;4.15;;;8.10;99.90;;;;;;4214902;28;20066;-64
2022/11/14 02:17:16;;;;;;;6.50;4.07;;;8.10;99.90;;;;;;4216944;28;20048;-63
2022/11/14 02:19:17;;;;;;;;;;;8.00;99.90;;;;;;4214304;28;20046;-63
2022/11/14 02:21:17;;;;;;;6.47;4.50;;;8.10;99.90;;;;;;4215686;28;20282;-64
2022/11/14 02:23:26;;;;;;;6.18;3.67;;;8.00;99.90;;;;;;4199328;28;20040;-63
2022/11/14 02:25:28;;;;;;;7.55;4.20;;;8.00;99.90;;;;;;4217731;28;20031;-63
2022/11/14 02:27:31;;;;;;;7.05;4.20;;;8.00;99.90;;;;;;4213668;28;20040;-63
2022/11/14 02:29:33;;;;;;;8.30;4.32;;;8.00;99.90;;;;;;4213297;28;20039;-63
2022/11/14 02:31:34;;;;;;;6.47;4.37;;;7.90;99.90;;;;;;4215369;28;20034;-63
2022/11/14 02:33:34;;;;;;;7.13;4.10;;;7.90;99.90;;;;;;4207424;28;20491;-64
2022/11/14 02:35:35;;;;;;;6.10;3.80;;;7.90;99.90;;;;;;4216361;28;20035;-63
2022/11/14 02:37:36;;;;;;;6.75;4.18;;;7.90;99.90;;;;;;4214285;28;20100;-63
2022/11/14 02:39:37;;;;;;;6.15;3.80;;;7.90;99.90;;;;;;4217022;28;20035;-62
2022/11/14 02:41:38;;;;;;;9.48;4.40;;;7.90;99.90;;;;;;4224284;28;20479;-64
2022/11/14 02:43:38;;;;;;;7.43;3.88;;;7.90;99.90;;;;;;4211875;28;20036;-64
2022/11/14 02:45:39;;;;;;;6.88;4.40;;;7.80;99.90;;;;;;4211867;28;20032;-63
2022/11/14 02:47:39;;;;;;;8.15;4.63;;;7.80;99.90;;;;;;4212845;28;20028;-66
2022/11/14 02:49:40;;;;;;;6.35;4.40;;;7.80;99.90;;;;;;4201151;28;20108;-64
2022/11/14 02:51:41;;;;;;;7.93;4.63;;;7.80;99.90;;;;;;4204203;28;20047;-64
2022/11/14 02:53:42;;;;;;;6.43;4.25;;;7.80;99.90;;;;;;4200680;28;20386;-64
2022/11/14 02:55:42;;;;;;;6.05;3.95;;;7.70;99.90;;;;;;4199721;28;20028;-63
2022/11/14 02:57:43;;;;;;;5.95;4.00;;;7.70;99.90;;;;;;4202146;28;20031;-64
2022/11/14 02:59:43;;;;;;;6.95;3.85;;;7.70;99.90;;;;;;4201481;28;20032;-63
2022/11/14 03:01:44;;;;;;;6.07;4.18;;;7.60;99.90;;;;;;4203449;28;20083;-63
2022/11/14 03:03:44;;;;;;;6.47;4.20;;;7.60;99.90;;;;;;4204035;28;20028;-63
2022/11/14 03:05:45;;;;;;;6.72;4.65;;;7.60;99.90;;;;;;4208300;28;20039;-63
2022/11/14 03:07:46;;;;;;;8.57;4.45;;;7.60;99.90;;;;;;4202745;28;20024;-64
2022/11/14 03:09:46;;;;;;;5.22;3.90;;;7.60;99.90;;;;;;4201790;28;20037;-63
2022/11/14 03:11:47;;;;;;;6.68;4.25;;;7.50;99.90;;;;;;4204736;28;20372;-63
2022/11/14 03:13:48;;;;;;;7.15;4.20;;;7.50;99.90;;;;;;4201169;28;20433;-64
2022/11/14 03:15:48;;;;;;;7.22;4.50;;;7.50;99.90;;;;;;4199569;28;20508;-64
2022/11/14 03:17:49;;;;;;;9.65;4.70;;;7.50;99.90;;;;;;4207297;28;20040;-64
2022/11/14 03:19:50;;;;;;;9.07;5.07;;;7.50;99.90;;;;;;4200430;28;20434;-63
2022/11/14 03:21:51;;;;;;;5.80;4.45;;;7.50;99.90;;;;;;4201755;28;20033;-64
2022/11/14 03:23:52;;;;;;;7.75;4.65;;;7.40;99.90;;;;;;4204060;28;20028;-64
2022/11/14 03:25:52;;;;;;;7.50;4.80;;;7.40;99.90;;;;;;4199317;28;20483;-64
2022/11/14 03:27:53;;;;;;;8.15;5.00;;;7.40;99.90;;;;;;4200033;28;20071;-64
2022/11/14 03:29:53;;;;;;;10.68;5.05;;;7.40;99.90;;;;;;4197460;28;20106;-64
2022/11/14 03:31:54;;;;;;;7.40;4.82;;;7.40;99.90;;;;;;4203416;28;20082;-64
2022/11/14 03:33:54;;;;;;;8.75;4.90;;;7.40;99.90;;;;;;4201724;28;20028;-63
2022/11/14 03:35:55;;;;;;;6.68;4.45;;;7.30;99.90;;;;;;4201256;28;20032;-63
2022/11/14 03:37:55;;;;;;;7.43;4.88;;;7.40;99.90;;;;;;4200657;28;20028;-63
2022/11/14 03:39:56;;;;;;;7.72;4.75;;;7.30;99.90;;;;;;4205876;28;20105;-63
2022/11/14 03:41:56;;;;;;;9.18;4.15;;;7.30;99.90;;;;;;4202773;28;20043;-63
2022/11/14 03:43:57;;;;;;;8.13;4.80;;;7.30;99.90;;;;;;4199486;28;20029;-63
2022/11/14 03:45:59;;;;;;;6.95;4.50;;;7.20;99.90;;;;;;4206702;28;20517;-63
2022/11/14 03:48:00;;;;;;;8.13;4.60;;;7.30;99.90;;;;;;4200492;28;20032;-63
2022/11/14 03:50:00;;;;;;;9.07;4.65;;;7.30;99.90;;;;;;4202673;28;20032;-63
2022/11/14 03:52:01;;;;;;;8.40;4.40;;;7.20;99.90;;;;;;4203373;28;20048;-63
2022/11/14 03:54:01;;;;;;;9.45;5.03;;;7.20;99.90;;;;;;4198577;28;20033;-63
2022/11/14 03:56:02;;;;;;;10.88;5.55;;;7.20;99.90;;;;;;4202415;28;20544;-63
2022/11/14 03:58:03;;;;;;;7.75;4.70;;;7.20;99.90;;;;;;4199608;28;20045;-64
2022/11/14 04:00:04;;;;;;;17.17;5.72;;;7.10;99.90;;;;;;4200112;28;20029;-66
2022/11/14 04:02:05;;;;;;;9.02;5.15;;;7.10;99.90;;;;;;4199474;28;20111;-63
2022/11/14 04:04:05;;;;;;;7.95;5.18;;;7.10;99.90;;;;;;4200751;28;20162;-63
2022/11/14 04:06:06;;;;;;;10.00;5.38;;;7.10;99.90;;;;;;4197740;28;20196;-63
2022/11/14 04:08:06;;;;;;;9.05;5.40;;;7.00;99.90;;;;;;4203795;28;20361;-63
2022/11/14 04:10:07;;;;;;;8.75;5.70;;;7.00;99.90;;;;;;4202389;28;20078;-64
2022/11/14 04:12:08;;;;;;;8.90;5.13;;;6.90;99.90;;;;;;4209334;28;20023;-63
2022/11/14 04:14:08;;;;;;;8.85;5.38;;;6.90;99.90;;;;;;4222394;28;20043;-63
2022/11/14 04:16:09;;;;;;;8.20;4.88;;;6.90;99.90;;;;;;4214648;28;20039;-63
2022/11/14 04:18:10;;;;;;;8.77;5.32;;;6.80;99.90;;;;;;4223944;28;20057;-63
2022/11/14 04:20:11;;;;;;;12.52;5.55;;;6.90;99.90;;;;;;4209261;28;20170;-63
2022/11/14 04:22:12;;;;;;;9.10;5.43;;;6.80;99.90;;;;;;4200734;28;20127;-63
2022/11/14 04:24:12;;;;;;;9.70;6.00;;;6.80;99.90;;;;;;4201245;28;20045;-64
2022/11/14 04:26:13;;;;;;;11.05;5.88;;;6.80;99.90;;;;;;4203142;28;20088;-63
2022/11/14 04:28:13;;;;;;;8.60;5.40;;;6.80;99.90;;;;;;4200073;28;20032;-64
2022/11/14 04:30:14;;;;;;;9.38;5.35;;;6.80;99.90;;;;;;4200239;28;20058;-63
2022/11/14 04:32:15;;;;;;;9.25;5.47;;;6.90;99.90;;;;;;4204107;28;20032;-63
2022/11/14 04:34:16;;;;;;;6.88;4.32;;;6.80;99.90;;;;;;4199057;28;20063;-63
2022/11/14 04:36:17;;;;;;;8.32;5.18;;;6.80;99.90;;;;;;4199541;28;20556;-63
2022/11/14 04:38:17;;;;;;;10.52;5.68;;;6.80;99.90;;;;;;4202694;28;20036;-63
2022/11/14 04:40:18;;;;;;;8.52;5.50;;;6.80;99.90;;;;;;4199976;28;20123;-63
2022/11/14 04:42:18;;;;;;;9.40;5.13;;;6.90;99.90;;;;;;4219934;28;20120;-63
2022/11/14 04:44:19;;;;;;;9.32;5.70;;;6.90;99.90;;;;;;4217570;28;20043;-64
2022/11/14 04:46:20;;;;;;;9.50;5.32;;;6.90;99.90;;;;;;4211238;28;20040;-64
2022/11/14 04:48:20;;;;;;;9.20;5.72;;;6.90;99.90;;;;;;4215426;28;20106;-63
2022/11/14 04:50:21;;;;;;;10.27;5.97;;;6.90;99.90;;;;;;4214005;28;20553;-63
2022/11/14 04:52:21;;;;;;;10.10;5.78;;;6.90;99.90;;;;;;4216050;28;20063;-64
2022/11/14 04:54:22;;;;;;;10.75;5.60;;;6.90;99.90;;;;;;4211442;28;20058;-64
2022/11/14 04:56:24;;;;;;;10.18;6.03;;;6.90;99.90;;;;;;4219189;28;20043;-63
2022/11/14 04:58:25;;;;;;;11.57;6.23;;;6.90;99.90;;;;;;4219400;28;20028;-63
2022/11/14 05:00:26;;;;;;;12.35;6.85;;;6.90;99.90;;;;;;4215319;28;20408;-63
2022/11/14 05:02:30;;;;;;;9.95;6.15;;;6.90;99.90;;;;;;4215432;28;20063;-63
2022/11/14 05:04:31;;;;;;;8.70;5.30;;;6.90;99.90;;;;;;4219351;28;20035;-63
2022/11/14 05:06:31;;;;;;;10.32;5.50;;;6.90;99.90;;;;;;4212890;28;20066;-63
2022/11/14 05:08:32;;;;;;;10.25;5.50;;;6.80;99.90;;;;;;4204197;28;20514;-63
2022/11/14 05:10:33;;;;;;;9.38;5.43;;;6.80;99.90;;;;;;4209824;28;20028;-63
2022/11/14 05:12:33;;;;;;;9.32;5.20;;;6.80;99.90;;;;;;4212730;28;20036;-63
2022/11/14 05:14:34;;;;;;;8.68;5.18;;;6.80;99.90;;;;;;4212368;28;20095;-63
2022/11/14 05:16:35;;;;;;;10.68;6.40;;;6.80;99.90;;;;;;4219147;27;20052;-63
2022/11/14 05:18:36;;;;;;;10.57;5.78;;;6.80;99.90;;;;;;4219968;28;20019;-64
2022/11/14 05:20:36;;;;;;;11.23;6.10;;;6.80;99.90;;;;;;4204067;28;20085;-63
2022/11/14 05:22:37;;;;;;;10.57;5.82;;;6.70;99.90;;;;;;4205085;28;20028;-63
2022/11/14 05:24:38;;;;;;;10.52;5.45;;;6.70;99.90;;;;;;4201419;28;20605;-63
2022/11/14 05:26:38;;;;;;;10.15;6.03;;;6.70;99.90;;;;;;4200314;28;20101;-63
2022/11/14 05:28:39;;;;;;;11.80;5.93;;;6.70;99.90;;;;;;4199903;28;20043;-63
2022/11/14 05:30:39;;;;;;;11.48;6.72;;;6.70;99.90;;;;;;4204948;28;20036;-63
2022/11/14 05:32:40;;;;;;;11.10;5.95;;;6.70;99.90;;;;;;4206582;28;20058;-63
2022/11/14 05:34:41;;;;;;;9.30;5.60;;;6.70;99.90;;;;;;4197866;28;20024;-66
2022/11/14 05:36:41;;;;;;;9.95;5.93;;;6.60;99.90;;;;;;4203051;28;20502;-64
2022/11/14 05:38:42;;;;;;;9.75;5.78;;;6.60;99.90;;;;;;4201567;28;20483;-63
2022/11/14 05:40:43;;;;;;;8.35;5.32;;;6.60;99.90;;;;;;4201735;28;20395;-63
2022/11/14 05:42:43;;;;;;;12.13;5.30;;;6.60;99.90;;;;;;4205832;28;20098;-63
2022/11/14 05:44:44;;;;;;;9.35;5.40;;;6.60;99.90;;;;;;4201608;28;20048;-63
2022/11/14 05:46:45;;;;;;;9.65;5.65;;;6.60;99.90;;;;;;4204997;28;20024;-63
2022/11/14 05:48:45;;;;;;;9.60;5.50;;;6.50;99.90;;;;;;4205403;28;20415;-63
2022/11/14 05:50:46;;;;;;;10.18;5.47;;;6.50;99.90;;;;;;4204949;28;20024;-63
2022/11/14 05:52:46;;;;;;;11.85;6.15;;;6.60;99.90;;;;;;4219720;28;20030;-63
2022/11/14 05:54:47;;;;;;;11.30;6.30;;;6.50;99.90;;;;;;4216466;28;20020;-63
2022/11/14 05:56:47;;;;;;;10.18;5.22;;;6.50;99.90;;;;;;4214011;28;20050;-63
2022/11/14 05:58:48;;;;;;;9.00;5.57;;;6.50;99.90;;;;;;4220646;28;20118;-63
2022/11/14 06:00:48;;;;;;;10.23;5.22;;;6.50;99.90;;;;;;4213320;28;20033;-63
2022/11/14 06:02:54;;;;;;;10.23;5.90;;;6.50;99.90;;;;;;4218577;28;20028;-63
2022/11/14 06:04:54;;;;;;;10.60;5.30;;;6.50;99.90;;;;;;4212622;28;20032;-63
2022/11/14 06:06:55;;;;;;;10.75;5.55;;;6.50;99.90;;;;;;4218035;28;20111;-63
2022/11/14 06:08:55;;;;;;;9.55;5.60;;;6.50;99.90;;;;;;4196781;28;20092;-63
2022/11/14 06:11:04;;;;;;;12.00;5.65;;;6.50;99.90;;;;;;4216012;27;20089;-63
2022/11/14 06:13:04;;;;;;;9.23;5.97;;;6.50;99.90;;;;;;4210823;28;20036;-63
2022/11/14 06:15:05;;;;;;;9.43;5.68;;;6.50;99.90;;;;;;4202782;28;20518;-64
2022/11/14 06:17:06;;;;;;;8.88;5.95;;;6.40;99.90;;;;;;4201510;28;20040;-63
2022/11/14 06:19:07;;;;;;;12.40;6.03;;;6.50;99.90;;;;;;4200539;28;20063;-63
2022/11/14 06:21:12;;;;;;;12.45;6.30;;;6.50;99.90;;;;;;4201852;28;20032;-63
2022/11/14 06:23:12;;;;;;;8.73;5.68;;;6.50;99.90;;;;;;4204687;27;20079;-62
2022/11/14 06:25:13;;;;;;;11.15;6.15;;;6.50;99.90;;;;;;4204314;28;20036;-63
2022/11/14 06:27:13;;;;;;;10.30;5.82;;;6.50;99.90;;;;;;4200421;27;20035;-63
2022/11/14 06:29:14;;;;;;;11.45;6.18;;;6.50;99.90;;;;;;4202722;27;20044;-66
2022/11/14 06:31:15;;;;;;;11.18;6.00;;;6.40;99.90;;;;;;4199491;28;20267;-66
2022/11/14 06:33:15;;;;;;;10.50;5.88;;;6.40;99.90;;;;;;4199857;28;20031;-66
2022/11/14 06:35:16;;;;;;;8.70;5.47;;;6.40;99.90;;;;;;4204697;28;20044;-66
2022/11/14 06:37:16;;;;;;;8.15;5.25;;;6.30;99.90;;;;;;4205137;28;20059;-66
2022/11/14 06:39:17;;;;;;;10.45;6.15;;;6.30;99.90;;;;;;4198843;28;20032;-65
2022/11/14 06:41:19;;;;;;;11.27;5.15;;;6.30;99.90;;;;;;4202635;28;20085;-66
2022/11/14 06:43:20;;;;;;;;;;;6.30;99.90;;;;;;4202467;28;20032;-66
2022/11/14 06:45:21;;;;;;;9.35;5.65;;;6.30;99.90;;;;;;4214965;27;19922;-67
2022/11/14 06:47:21;;;;;;;8.77;5.22;;;6.20;99.90;;;;;;4214836;27;20047;-66
2022/11/14 06:49:23;;;;;;;11.93;6.20;;;6.20;99.90;;;;;;4215146;28;20036;-66
2022/11/14 06:51:24;;;;;;;10.13;6.07;;;6.20;99.90;;;;;;4205416;28;20063;-66
2022/11/14 06:53:27;;;;;;;9.98;6.07;;;6.20;99.90;;;;;;4210711;27;20036;-66
2022/11/14 06:55:28;;;;;;;11.10;5.97;;;6.20;99.90;;;;;;4215130;27;20498;-66
2022/11/14 06:57:28;;;;;;;9.90;5.38;;;6.20;99.90;;;;;;4214476;28;20043;-66
2022/11/14 06:59:29;;;;;;;8.60;5.43;;;6.20;99.90;;;;;;4216033;28;20039;-65
2022/11/14 07:01:29;;;;;;;12.35;5.88;;;6.20;99.90;;;;;;4212890;28;20040;-66
2022/11/14 07:03:30;;;;;;;10.82;5.55;;;6.20;99.90;;;;;;4215010;28;20039;-65
2022/11/14 07:05:30;;;;;;;12.77;5.63;;;6.10;99.90;;;;;;4212926;28;20486;-66
2022/11/14 07:07:31;;;;;;;13.65;5.95;;;6.10;99.90;;;;;;4213187;28;20039;-65
2022/11/14 07:09:32;;;;;;;11.07;5.82;;;6.10;99.90;;;;;;4212140;28;20119;-65
2022/11/14 07:11:34;;;;;;;10.63;6.70;;;6.10;99.90;;;;;;4210897;28;20051;-66
2022/11/14 07:13:35;;;;;;;10.18;6.18;;;6.10;99.90;;;;;;4216031;27;20058;-66
2022/11/14 07:15:36;;;;;;;11.80;6.55;;;6.10;99.90;;;;;;4213118;28;20399;-65
2022/11/14 07:17:37;;;;;;;12.40;6.07;;;6.10;99.90;;;;;;4219652;28;20024;-65
2022/11/14 07:19:37;;;;;;;11.23;6.22;;;6.10;99.90;;;;;;4213793;28;20036;-65
2022/11/14 07:21:38;;;;;;;12.00;6.90;;;6.10;99.90;;;;;;4211962;28;20387;-65
2022/11/14 07:23:39;;;;;;;10.57;6.47;;;6.10;99.90;;;;;;4215150;28;20024;-65
2022/11/14 07:25:40;;;;;;;10.90;7.10;;;6.10;99.90;;;;;;4215683;28;20046;-65
2022/11/14 07:27:41;;;;;;;11.77;7.20;;;6.10;99.90;;;;;;4218416;28;20445;-65
2022/11/14 07:29:42;;;;;;;14.45;7.55;;;6.20;99.90;;;;;;4198504;28;20040;-66
2022/11/14 07:31:43;;;;;;;12.98;7.18;;;6.10;99.90;;;;;;4195182;28;20548;-66
2022/11/14 07:33:44;;;;;;;12.82;7.05;;;6.20;99.90;;;;;;4199477;28;20492;-66
2022/11/14 07:35:45;;;;;;;11.90;6.82;;;6.20;99.90;;;;;;4197363;28;20575;-65
2022/11/14 07:37:45;;;;;;;12.20;6.72;;;6.20;99.90;;;;;;4196811;28;20068;-65
2022/11/14 07:39:46;;;;;;;10.90;6.70;;;6.20;99.90;;;;;;4197316;28;20032;-65
2022/11/14 07:41:47;;;;;;;13.63;6.55;;;6.20;99.90;;;;;;4194873;28;20056;-65
2022/11/14 07:43:47;;;;;;;13.93;7.10;;;6.20;99.90;;;;;;4197048;28;20059;-65
2022/11/14 07:45:48;;;;;;;13.43;7.72;;;6.30;99.90;;;;;;4193632;28;20036;-65
2022/11/14 07:47:48;;;;;;;15.07;7.90;;;6.30;99.90;;;;;;4194755;28;20119;-65
2022/11/14 07:49:49;;;;;;;14.57;7.43;;;6.40;99.90;;;;;;4191936;28;20830;-65
2022/11/14 07:51:49;;;;;;;12.40;7.28;;;6.40;99.90;;;;;;4195552;28;20032;-65
2022/11/14 07:53:53;;;;;;;13.60;7.57;;;6.50;99.90;;;;;;4198330;28;20032;-65
2022/11/14 07:55:55;;;;;;;13.32;7.25;;;6.70;99.90;;;;;;4195752;28;20119;-65
2022/11/14 07:57:58;;;;;;;11.35;6.93;;;6.90;99.90;;;;;;4198035;28;20453;-65
2022/11/14 07:59:59;;;;;;;11.63;6.80;;;7.10;99.90;;;;;;4190519;28;20040;-65
2022/11/14 08:01:59;;;;;;;14.00;7.18;;;7.30;99.90;;;;;;4196238;28;20044;-65
2022/11/14 08:04:00;;;;;;;10.38;6.57;;;7.60;99.90;;;;;;4198042;28;20032;-65
2022/11/14 08:06:03;;;;;;;12.13;6.97;;;7.90;99.90;;;;;;4196208;28;20791;-65
2022/11/14 08:08:03;;;;;;;;;;;8.10;99.90;;;;;;4197444;28;20063;-65
2022/11/14 08:10:04;;;;;;;10.95;6.50;;;8.30;99.90;;;;;;4194247;28;20299;-66
2022/11/14 08:12:05;;;;;;;10.43;7.00;;;8.60;99.90;;;;;;4197142;28;20032;-66
2022/11/14 08:14:06;;;;;;;11.23;7.15;;;8.80;99.90;;;;;;4198205;28;20033;-66
2022/11/14 08:16:09;;;;;;;11.35;6.90;;;9.10;99.90;;;;;;4198875;28;20089;-65
2022/11/14 08:18:10;;;;;;;12.43;6.53;;;9.40;99.90;;;;;;4195746;28;20040;-66
2022/11/14 08:20:10;;;;;;;12.10;6.80;;;9.60;99.90;;;;;;4196529;28;20443;-66
2022/11/14 08:22:11;;;;;;;12.60;7.63;;;9.80;99.90;;;;;;4197246;28;20391;-66
2022/11/14 08:24:11;;;;;;;11.80;7.15;;;10.00;99.90;;;;;;4201817;28;20116;-65
2022/11/14 08:26:12;;;;;;;9.80;6.30;;;10.20;99.90;;;;;;4194904;28;20052;-65
2022/11/14 08:28:13;;;;;;;11.02;6.85;;;10.40;99.90;;;;;;4213547;28;20036;-67
2022/11/14 08:30:13;;;;;;;9.30;6.63;;;10.70;99.90;;;;;;4197429;28;20043;-66
2022/11/14 08:32:16;;;;;;;12.45;6.90;;;10.90;99.90;;;;;;4198921;28;20112;-66
2022/11/14 08:34:16;;;;;;;;;;;11.10;99.90;;;;;;4200374;28;20392;-66
2022/11/14 08:36:17;;;;;;;10.55;6.47;;;11.20;99.90;;;;;;4202574;28;19919;-66
2022/11/14 08:38:18;;;;;;;12.13;6.88;;;11.20;99.90;;;;;;4203274;28;20067;-65
2022/11/14 08:40:18;;;;;;;12.63;7.32;;;11.30;99.90;;;;;;4199518;28;20097;-66
2022/11/14 08:42:19;;;;;;;10.25;6.85;;;11.40;99.90;;;;;;4198583;28;20025;-67
2022/11/14 08:44:19;;;;;;;11.43;7.93;;;11.40;99.90;;;;;;4205316;28;20395;-67
2022/11/14 08:46:20;;;;;;;15.00;8.23;;;11.60;99.90;;;;;;4199855;28;20032;-67
2022/11/14 08:48:21;;;;;;;13.68;8.20;;;11.70;99.90;;;;;;4200276;28;20033;-66
2022/11/14 08:50:21;;;;;;;14.50;9.75;;;11.80;99.90;;;;;;4201324;28;20317;-66
2022/11/14 08:52:22;;;;;;;14.43;9.82;;;11.70;99.90;;;;;;4201395;28;20086;-66
2022/11/14 08:54:23;;;;;;;16.60;9.50;;;11.90;99.90;;;;;;4200683;28;20035;-68
2022/11/14 08:56:23;;;;;;;21.05;11.70;;;11.90;99.90;;;;;;4199076;28;20052;-68
2022/11/14 08:58:28;;;;;;;16.65;10.77;;;11.90;99.90;;;;;;4201938;28;20178;-67
2022/11/14 09:00:29;;;;;;;18.05;10.85;;;12.00;99.90;;;;;;4199160;28;20036;-66
2022/11/14 09:02:29;;;;;;;23.17;12.15;;;12.10;99.90;;;;;;4198405;28;20028;-67
2022/11/14 09:04:30;;;;;;;17.58;10.70;;;12.10;99.90;;;;;;4199977;28;20028;-67
2022/11/14 09:06:31;;;;;;;15.82;10.27;;;12.20;99.90;;;;;;4203495;28;20032;-67
2022/11/14 09:08:32;;;;;;;16.90;11.07;;;12.00;99.90;;;;;;4199603;28;20037;-66
2022/11/14 09:10:33;;;;;;;16.63;10.30;;;11.90;99.90;;;;;;4201257;28;20487;-66
2022/11/14 09:12:34;;;;;;;16.75;10.68;;;11.90;99.90;;;;;;4199976;28;20043;-66
2022/11/14 09:14:34;;;;;;;20.00;12.52;;;11.60;99.90;;;;;;4202827;28;20040;-67
2022/11/14 09:16:35;;;;;;;18.70;11.73;;;11.40;99.90;;;;;;4200841;28;20127;-67
2022/11/14 09:18:36;;;;;;;16.45;10.48;;;11.30;99.90;;;;;;4200202;28;20045;-66
2022/11/14 09:20:37;;;;;;;17.77;11.10;;;11.30;99.90;;;;;;4200332;28;20063;-66
2022/11/14 09:22:37;;;;;;;21.77;12.93;;;11.00;99.90;;;;;;4203011;28;20036;-66
2022/11/14 09:24:38;;;;;;;17.75;11.57;;;10.90;99.90;;;;;;4202516;28;20110;-66
2022/11/14 09:26:39;;;;;;;18.83;12.65;;;10.60;99.90;;;;;;4200861;28;20036;-66
2022/11/14 09:28:40;;;;;;;15.85;10.52;;;10.40;99.90;;;;;;4197425;28;20101;-66
2022/11/14 09:30:40;;;;;;;24.17;12.88;;;10.40;99.90;;;;;;4199776;28;20032;-67
2022/11/14 09:32:41;;;;;;;24.27;14.32;;;10.20;99.90;;;;;;4201460;28;20031;-66
2022/11/14 09:34:44;;;;;;;20.20;13.10;;;9.90;99.90;;;;;;4198642;28;20071;-66
2022/11/14 09:36:45;;;;;;;24.85;14.07;;;9.80;99.90;;;;;;4206304;28;20036;-67
2022/11/14 09:38:46;;;;;;;27.02;14.52;;;9.80;99.90;;;;;;4199214;28;20621;-67
2022/11/14 09:41:24;;;;;;;24.55;14.68;;;9.60;99.90;;;;;;4198731;28;20056;-66
2022/11/14 09:43:52;;;;;;;25.00;14.85;;;9.40;99.90;;;;;;4196586;28;20487;-67
2022/11/14 09:45:52;;;;;;;22.38;13.50;;;9.30;99.90;;;;;;4195918;28;20068;-66
2022/11/14 09:48:02;;;;;;;24.15;14.95;;;9.30;99.90;;;;;;4199315;28;20028;-66
2022/11/14 09:50:16;;;;;;;27.67;14.98;;;9.30;99.90;;;;;;4199081;28;20218;-67
2022/11/14 09:52:37;;;;;;;24.40;13.60;;;9.20;99.90;;;;;;4196592;28;20067;-66
2022/11/14 09:54:50;;;;;;;29.25;15.63;;;9.20;99.90;;;;;;4200679;28;20056;-65
2022/11/14 09:56:51;;;;;;;27.98;15.30;;;9.10;99.90;;;;;;4212975;28;20478;-66
2022/11/14 09:58:55;;;;;;;29.17;15.27;;;8.90;99.90;;;;;;4213564;28;20035;-66
2022/11/14 10:01:21;;;;;;;28.00;16.42;;;8.90;99.90;;;;;;4196361;28;20036;-65
2022/11/14 10:03:37;;;;;;;29.38;15.50;;;8.90;99.90;;;;;;4197649;28;20044;-66
2022/11/14 10:06:01;;;;;;;28.13;15.70;;;8.90;99.90;;;;;;4204653;27;20021;-65
2022/11/14 10:08:34;;;;;;;26.83;15.30;;;8.80;99.90;;;;;;4209803;28;20039;-66
2022/11/14 10:10:43;;;;;;;24.35;14.40;;;8.80;99.90;;;;;;4201341;28;20167;-66
2022/11/14 10:13:05;;;;;;;30.25;16.73;;;8.90;99.90;;;;;;4196464;28;20036;-66
2022/11/14 10:15:22;;;;;;;24.65;15.32;;;8.90;99.90;;;;;;4195128;28;20036;-67
2022/11/14 10:18:00;;;;;;;26.10;14.98;;;8.90;99.90;;;;;;4195776;28;20121;-66
2022/11/14 10:20:29;;;;;;;30.15;15.68;;;8.90;99.90;;;;;;4196621;28;20043;-66
2022/11/14 10:22:57;;;;;;;26.80;14.70;;;8.80;99.90;;;;;;4195955;28;20040;-66
2022/11/14 10:25:06;;;;;;;27.83;15.52;;;8.80;99.90;;;;;;4198725;28;20070;-66
2022/11/14 10:27:16;;;;;;;28.27;15.48;;;8.80;99.90;;;;;;4210574;28;20063;-65
2022/11/14 10:29:29;;;;;;;30.45;15.82;;;8.80;99.90;;;;;;4209638;28;20094;-65
2022/11/14 10:31:40;;;;;;;30.55;15.98;;;8.90;99.90;;;;;;4207761;28;20036;-66
2022/11/14 10:33:52;;;;;;;25.65;13.70;;;8.80;99.90;;;;;;4210743;28;20094;-66
2022/11/14 10:36:02;;;;;;;26.60;14.45;;;8.80;99.90;;;;;;4196107;28;20036;-66
2022/11/14 10:38:08;;;;;;;32.40;15.27;;;8.80;99.90;;;;;;4194980;28;20162;-66
2022/11/14 10:40:16;;;;;;;28.17;14.63;;;8.80;99.90;;;;;;4200046;28;20483;-66